• Join FlightAware (Why Join?)
  • Login
  • US Flag 
06:33AM EDT


 

Airport Tracker/Info


-or-


 

Live Flight TrackerFlight Track Log ✈ DAL3698 ✈ 04-Mar-2014 ✈ KDTW - KIND

Flight Track Log - Related Links

Times and Time Zones

All times are in EST time to prevent confusion due to time zone crossing. See the DAL3698 flight status page for this flight to view local times or setup timezone preferences in your user account.

Time Position Orientation Groundspeed Altitude Reporting Facility
EST Latitude Longitude Course Direction KTS MPH feet Rate Location/Type
08:57AM 42.2081 -83.3675 210° Southwest 149 171 1,400  Level Cleveland Center
08:58AM 42.1658 -83.4008 210° Southwest 191 220 3,900 1,920 Climbing Cleveland Center
08:58AM 42.1586 -83.4072 213° Southwest 184 212 4,100 2,580 Climbing Cleveland Center
09:00AM 42.0944 -83.4533 208° Southwest 225 259 7,500 3,060 Climbing Cleveland Center
09:01AM 42.0378 -83.4914 207° Southwest 231 266 10,500 2,100 Climbing Cleveland Center
09:02AM 41.9817 -83.5417 214° Southwest 236 272 11,900 1,500 Climbing Cleveland Center
09:03AM 41.9011 -83.6064 211° Southwest 295 339 13,700 1,740 Climbing Cleveland Center
09:04AM 41.8250 -83.6719 213° Southwest 320 368 15,500 1,800 Climbing Cleveland Center
09:05AM 41.7469 -83.7375 212° Southwest 326 375 17,500 1,620 Climbing Cleveland Center
09:06AM 41.6692 -83.8036 212° Southwest 329 379 18,900 1,200 Climbing Cleveland Center
09:07AM 41.5881 -83.8664 210° Southwest 332 382 20,000 480 Climbing Cleveland Center
09:08AM 41.5042 -83.9311 210° Southwest 344 396 20,000  Level Cleveland Center
09:09AM 41.4042 -84.0106 211° Southwest 348 400 20,000  Level Cleveland Center
09:10AM 41.3197 -84.0761 210° Southwest 349 402 20,000  Level Cleveland Center
09:11AM 41.2436 -84.1539 218° Southwest 358 412 20,000  Level Cleveland Center
09:12AM 41.2167 -84.2692 253° West 332 382 20,000  Level Cleveland Center
09:13AM 41.1869 -84.3847 251° West 331 381 20,000  Level Cleveland Center
09:14AM 41.1583 -84.4997 252° West 331 381 20,000  Level Cleveland Center
09:15AM 41.1269 -84.6153 250° West 331 381 20,000  Level Cleveland Center
09:16AM 41.0894 -84.7536 250° West 331 381 20,000  Level Cleveland Center
09:17AM 40.9839 -84.8453 213° Southwest 353 406 20,000  Level Indianapolis Center
09:18AM 40.8989 -84.9083 209° Southwest 352 405 20,000  Level Indianapolis Center
09:19AM 40.8086 -84.9750 209° Southwest 352 405 20,000  Level Indianapolis Center
09:20AM 40.7233 -85.0375 209° Southwest 352 405 20,000  Level Indianapolis Center
09:21AM 40.6372 -85.1033 210° Southwest 353 406 20,000  Level Indianapolis Center
09:23AM 40.5511 -85.2014 221° Southwest 348 400 20,000  Level Chicago Center
09:24AM 40.4767 -85.2844 220° Southwest 349 402 20,000  Level Chicago Center
09:25AM 40.4033 -85.3686 221° Southwest 350 403 20,000 -840 Level Chicago Center
09:26AM 40.3436 -85.4383 222° Southwest 351 404 18,400 -2,100 Descending Indianapolis Center
09:27AM 40.2606 -85.5383 223° Southwest 343 395 16,000 -2,280 Descending Indianapolis Center
09:28AM 40.1922 -85.6117 219° Southwest 326 375 13,700 -2,100 Descending Indianapolis Center
09:29AM 40.1247 -85.6861 220° Southwest 322 371 11,700 -1,800 Descending Indianapolis Center
09:30AM 40.0775 -85.7725 234° Southwest 301 346 10,100 -1,080 Descending Indianapolis Center
09:31AM 40.0389 -85.8564 239° Southwest 277 319 9,600 -1,020 Descending Indianapolis Center
09:32AM 39.9975 -85.9225 231° Southwest 246 283 8,000 -1,560 Descending Indianapolis Center
09:33AM 39.9492 -85.9847 225° Southwest 245 282 6,500 -1,560 Descending Indianapolis Center
09:34AM 39.8922 -86.0589 225° Southwest 245 282 4,900 -1,260 Descending Indianapolis Center
09:35AM 39.8478 -86.1172 225° Southwest 239 275 4,000 -780 Descending Indianapolis Center
09:36AM 39.8081 -86.1664 224° Southwest 218 251 3,400 -720 Descending Indianapolis Center
09:37AM 39.7731 -86.2114 225° Southwest 195 224 2,600 -900 Descending Indianapolis Center
09:38AM 39.7419 -86.2517 225° Southwest 172 198 1,600 -840 Descending Indianapolis Center
09:39AM 39.7150 -86.2856 224° Southwest 146 168 900 -420 Descending Indianapolis Center
09:40AM 39.7064 -86.2983 229° Southwest 86 99 800 -60 Descending Indianapolis Center
09:41AM 39.7117 -86.2933 36° Northeast 44 51 800  Level Indianapolis Center
09:42AM 39.7161 -86.2908 23° Northeast 39 45 800  Level Indianapolis Center